createdAt,value
2023-04-08T00:00:20.148Z,34.20
2023-04-08T00:02:47.347Z,38.03
2023-04-08T00:05:13.943Z,31.30
2023-04-08T00:07:40.468Z,40.87
2023-04-08T00:10:07.827Z,42.13
2023-04-08T00:12:34.501Z,38.93
2023-04-08T00:15:00.990Z,35.57
2023-04-08T00:17:27.552Z,34.97
2023-04-08T00:19:55.217Z,39.60
2023-04-08T00:22:22.090Z,39.70
2023-04-08T00:24:48.598Z,40.77
2023-04-08T00:27:15.398Z,31.27
2023-04-08T00:29:41.895Z,37.43
2023-04-08T00:32:08.455Z,40.67
2023-04-08T00:34:35.432Z,33.40
2023-04-08T00:37:02.127Z,34.37
2023-04-08T00:39:28.685Z,35.67
2023-04-08T00:41:56.101Z,31.83
2023-04-08T00:44:22.704Z,39.77
2023-04-08T00:46:49.320Z,30.90
2023-04-08T00:49:17.355Z,33.87
2023-04-08T00:51:43.892Z,38.67
2023-04-08T00:54:10.409Z,32.37
2023-04-08T00:56:37.448Z,42.87
2023-04-08T00:59:04.933Z,38.13
2023-04-08T01:01:44.771Z,34.60
2023-04-08T01:04:21.159Z,32.70
2023-04-08T01:07:12.315Z,37.33
2023-04-08T01:09:42.363Z,37.17
2023-04-08T01:12:12.415Z,30.77
2023-04-08T01:14:42.157Z,32.23
2023-04-08T01:17:09.695Z,30.33
2023-04-08T01:19:39.872Z,43.47
2023-04-08T01:22:48.087Z,41.43
2023-04-08T01:25:21.934Z,35.43
2023-04-08T01:27:49.697Z,43.57
2023-04-08T01:30:20.284Z,33.37
2023-04-08T01:32:47.648Z,32.70
2023-04-08T01:35:15.925Z,35.30
2023-04-08T01:37:43.071Z,39.50
2023-04-08T01:40:10.917Z,41.87
2023-04-08T01:42:38.544Z,38.30
2023-04-08T01:45:07.181Z,44.70
2023-04-08T01:47:35.569Z,49.13
2023-04-08T01:50:03.358Z,34.63
2023-04-08T01:52:30.628Z,34.37
2023-04-08T01:54:57.223Z,36.57
2023-04-08T01:57:33.721Z,39.80
2023-04-08T02:00:04.045Z,39.57
2023-04-08T02:02:33.311Z,42.33
2023-04-08T02:05:00.142Z,38.40
2023-04-08T02:07:26.687Z,43.10
2023-04-08T02:09:53.221Z,39.70
2023-04-08T02:12:20.619Z,43.57
2023-04-08T02:14:47.762Z,40.60
2023-04-08T02:17:25.399Z,36.73
2023-04-08T02:20:07.380Z,42.57
2023-04-08T02:22:46.031Z,41.50
2023-04-08T02:25:15.544Z,37.67
2023-04-08T02:27:43.515Z,40.00
2023-04-08T02:30:12.416Z,38.73
2023-04-08T02:32:39.777Z,42.77
2023-04-08T02:35:06.986Z,49.23
2023-04-08T02:37:34.018Z,36.60
2023-04-08T02:40:00.841Z,37.57
2023-04-08T02:42:27.350Z,44.30
2023-04-08T02:44:54.237Z,46.03
2023-04-08T02:47:20.892Z,46.17
2023-04-08T02:49:47.468Z,47.80
2023-04-08T02:52:13.991Z,41.23
2023-04-08T02:54:40.655Z,40.20
2023-04-08T02:57:07.150Z,46.83
2023-04-08T02:59:33.657Z,47.40
2023-04-08T03:02:00.405Z,48.97
2023-04-08T03:04:27.078Z,37.20
2023-04-08T03:06:53.644Z,40.77
2023-04-08T03:09:20.443Z,37.33
2023-04-08T03:11:52.451Z,40.00
2023-04-08T03:14:18.988Z,39.40
2023-04-08T03:16:45.628Z,42.77
2023-04-08T03:19:12.189Z,42.70
2023-04-08T03:21:38.675Z,42.67
2023-04-08T03:24:05.510Z,46.77
2023-04-08T03:26:32.052Z,43.30
2023-04-08T03:28:58.578Z,46.63
2023-04-08T03:31:25.847Z,43.90
2023-04-08T03:33:52.397Z,45.77
2023-04-08T03:36:18.907Z,43.00
2023-04-08T03:38:45.747Z,47.63
2023-04-08T03:41:12.291Z,50.00
2023-04-08T03:43:38.885Z,58.40
2023-04-08T03:46:05.827Z,41.37
2023-04-08T03:48:32.627Z,48.43
2023-04-08T03:50:59.206Z,48.57
2023-04-08T03:53:27.927Z,50.00
2023-04-08T03:55:55.222Z,43.47
2023-04-08T03:58:21.915Z,46.43
2023-04-08T04:00:48.505Z,45.30
2023-04-08T04:03:15.138Z,50.07
2023-04-08T04:05:41.766Z,47.67
2023-04-08T04:08:09.364Z,55.93
2023-04-08T04:10:35.976Z,49.73
2023-04-08T04:13:02.475Z,48.73
2023-04-08T04:15:29.104Z,42.73
2023-04-08T04:17:55.658Z,51.80
2023-04-08T04:20:22.293Z,45.03
2023-04-08T04:22:48.871Z,47.53
2023-04-08T04:25:15.543Z,47.63
2023-04-08T04:27:42.076Z,52.87
2023-04-08T04:30:09.477Z,46.80
2023-04-08T04:32:36.116Z,45.30
2023-04-08T04:35:02.831Z,51.20
2023-04-08T04:37:29.342Z,53.27
2023-04-08T04:39:55.884Z,49.57
2023-04-08T04:42:22.495Z,60.07
2023-04-08T04:44:49.218Z,50.57
2023-04-08T04:47:16.279Z,51.67
2023-04-08T04:49:42.844Z,52.63
2023-04-08T04:52:09.381Z,54.93
2023-04-08T04:54:36.173Z,50.67
2023-04-08T04:57:02.895Z,53.40
2023-04-08T04:59:29.481Z,52.17
2023-04-08T05:01:57.549Z,55.50
2023-04-08T05:04:24.942Z,52.13
2023-04-08T05:06:51.705Z,54.70
2023-04-08T05:09:18.328Z,54.73
2023-04-08T05:11:44.853Z,51.57
2023-04-08T05:14:11.430Z,57.13
2023-04-08T05:16:38.668Z,51.77
2023-04-08T05:19:05.276Z,56.60
2023-04-08T05:21:32.559Z,55.80
2023-04-08T05:23:59.389Z,52.73
2023-04-08T05:26:26.296Z,54.53
2023-04-08T05:28:52.956Z,56.87
2023-04-08T05:31:20.508Z,53.97
2023-04-08T05:33:48.000Z,66.20
2023-04-08T05:36:15.214Z,57.00
2023-04-08T05:38:44.414Z,62.00
2023-04-08T05:41:11.316Z,62.03
2023-04-08T05:43:37.829Z,57.43
2023-04-08T05:46:08.608Z,59.37
2023-04-08T05:48:35.713Z,56.10
2023-04-08T05:51:02.649Z,62.17
2023-04-08T05:53:29.511Z,55.70
2023-04-08T05:55:56.153Z,66.60
2023-04-08T05:58:22.711Z,60.43
2023-04-08T06:00:49.222Z,63.33
2023-04-08T06:03:17.446Z,53.33
2023-04-08T06:05:45.584Z,59.47
2023-04-08T06:08:12.103Z,72.27
2023-04-08T06:10:38.641Z,60.67
2023-04-08T06:13:05.217Z,61.40
2023-04-08T06:15:32.479Z,60.43
2023-04-08T06:17:59.234Z,54.20
2023-04-08T06:20:26.263Z,61.13
2023-04-08T06:22:52.794Z,65.97
2023-04-08T06:25:19.317Z,70.83
2023-04-08T06:27:45.833Z,59.53
2023-04-08T06:30:12.625Z,60.87
2023-04-08T06:32:39.224Z,52.63
2023-04-08T06:35:07.376Z,64.67
2023-04-08T06:37:38.216Z,64.20
2023-04-08T06:40:06.212Z,54.10
2023-04-08T06:42:32.723Z,56.93
2023-04-08T06:44:59.262Z,51.63
2023-04-08T06:47:26.330Z,46.87
2023-04-08T06:49:54.194Z,48.50
2023-04-08T06:52:21.127Z,62.60
2023-04-08T06:54:47.933Z,50.23
2023-04-08T06:57:14.450Z,46.00
2023-04-08T06:59:41.148Z,40.13
2023-04-08T07:02:07.813Z,45.83
2023-04-08T07:04:34.613Z,48.07
2023-04-08T07:07:01.457Z,42.60
2023-04-08T07:09:28.452Z,51.73
2023-04-08T07:11:55.661Z,48.37
2023-04-08T07:14:22.413Z,52.50
2023-04-08T07:16:49.011Z,45.80
2023-04-08T07:19:15.847Z,53.17
2023-04-08T07:21:42.477Z,43.17
2023-04-08T07:24:09.047Z,42.37
2023-04-08T07:26:35.612Z,44.03
2023-04-08T07:29:02.172Z,41.57
2023-04-08T07:31:28.766Z,40.80
2023-04-08T07:33:55.336Z,46.83
2023-04-08T07:36:21.970Z,40.80
2023-04-08T07:38:48.624Z,42.67
2023-04-08T07:41:15.640Z,38.23
2023-04-08T07:43:42.166Z,41.17
2023-04-08T07:46:09.039Z,40.40
2023-04-08T07:48:35.850Z,37.10
2023-04-08T07:51:11.112Z,36.77
2023-04-08T07:53:39.389Z,34.13
2023-04-08T07:56:13.981Z,36.57
2023-04-08T07:58:41.382Z,39.20
2023-04-08T08:01:22.243Z,38.07
2023-04-08T08:03:53.403Z,43.43
2023-04-08T08:06:20.747Z,39.63
2023-04-08T08:08:47.520Z,37.33
2023-04-08T08:11:14.089Z,36.77
2023-04-08T08:13:40.776Z,35.73
2023-04-08T08:16:08.965Z,33.30
2023-04-08T08:18:36.289Z,34.47
2023-04-08T08:21:03.656Z,36.20
2023-04-08T08:23:30.301Z,34.23
2023-04-08T08:26:06.189Z,39.10
2023-04-08T08:28:33.188Z,35.63
2023-04-08T08:30:59.802Z,33.77
2023-04-08T08:33:26.393Z,35.83
2023-04-08T08:35:53.055Z,36.50
2023-04-08T08:38:19.666Z,37.27
2023-04-08T08:40:46.332Z,36.70
2023-04-08T08:43:14.080Z,43.10
2023-04-08T08:45:41.889Z,39.17
2023-04-08T08:48:09.131Z,41.67
2023-04-08T08:50:36.026Z,39.50
2023-04-08T08:53:03.081Z,40.53
2023-04-08T08:56:00.024Z,38.63
2023-04-08T08:58:22.343Z,37.27
2023-04-08T09:00:48.849Z,35.67
2023-04-08T09:03:20.078Z,38.60
2023-04-08T09:06:01.571Z,35.50
2023-04-08T09:08:36.237Z,37.67
2023-04-08T09:11:14.715Z,44.87
2023-04-08T09:13:41.927Z,40.50
2023-04-08T09:16:10.954Z,42.57
2023-04-08T09:18:38.769Z,45.60
2023-04-08T09:21:06.578Z,42.50
2023-04-08T09:23:52.898Z,46.33
2023-04-08T09:26:22.744Z,45.40
2023-04-08T09:29:25.178Z,46.23
2023-04-08T09:31:57.575Z,50.03
2023-04-08T09:34:25.072Z,44.17
2023-04-08T09:36:52.529Z,44.17
2023-04-08T09:39:19.522Z,42.70
2023-04-08T09:41:49.869Z,40.83
2023-04-08T09:44:17.013Z,39.60
2023-04-08T09:46:49.426Z,41.20
2023-04-08T09:49:25.334Z,42.47
2023-04-08T09:52:07.173Z,43.77
2023-04-08T09:54:52.510Z,40.80
2023-04-08T09:57:31.846Z,44.87
2023-04-08T10:00:22.546Z,45.03
2023-04-08T10:03:15.837Z,43.03
2023-04-08T10:05:43.689Z,41.63
2023-04-08T10:08:10.594Z,40.83
2023-04-08T10:10:40.620Z,38.63
2023-04-08T10:13:07.919Z,42.73
2023-04-08T10:15:36.574Z,40.75
2023-04-08T10:18:03.151Z,39.35
2023-04-08T10:20:35.867Z,40.85
2023-04-08T10:23:09.466Z,42.97
2023-04-08T10:25:49.256Z,40.63
2023-04-08T10:28:18.509Z,40.15
2023-04-08T10:30:51.935Z,39.53
2023-04-08T10:33:30.526Z,37.10
2023-04-08T10:36:09.656Z,39.00
2023-04-08T10:38:36.208Z,36.60
2023-04-08T10:41:02.742Z,36.88
2023-04-08T10:43:33.937Z,35.33
2023-04-08T10:46:01.290Z,31.83
2023-04-08T10:48:29.083Z,32.67
2023-04-08T10:51:00.539Z,32.35
2023-04-08T10:53:31.256Z,33.42
2023-04-08T10:56:05.074Z,35.33
2023-04-08T10:58:31.635Z,30.80
2023-04-08T11:01:07.974Z,30.77
2023-04-08T11:03:36.811Z,32.50
2023-04-08T11:06:04.407Z,31.23
2023-04-08T11:08:34.923Z,30.25
2023-04-08T11:11:02.320Z,33.75
2023-04-08T11:13:29.242Z,34.88
2023-04-08T11:15:56.771Z,35.22
2023-04-08T11:18:24.074Z,36.60
2023-04-08T11:20:51.668Z,37.00
2023-04-08T11:23:18.547Z,35.83
2023-04-08T11:25:46.719Z,41.53
2023-04-08T11:28:14.636Z,39.70
2023-04-08T11:30:41.912Z,42.08
2023-04-08T11:33:08.999Z,41.83
2023-04-08T11:35:43.406Z,47.45
2023-04-08T11:38:11.370Z,44.55
2023-04-08T11:40:38.334Z,44.42
2023-04-08T11:43:12.611Z,41.10
2023-04-08T11:45:40.324Z,46.40
2023-04-08T11:48:14.507Z,41.22
2023-04-08T11:50:42.155Z,46.25
2023-04-08T11:53:19.740Z,40.92
2023-04-08T11:55:46.578Z,38.67
2023-04-08T11:58:13.085Z,37.67
2023-04-08T12:00:39.645Z,38.22
2023-04-08T12:03:07.303Z,36.00
2023-04-08T12:05:34.256Z,33.58
2023-04-08T12:08:00.744Z,30.10
2023-04-08T12:10:27.292Z,27.35
2023-04-08T12:12:53.877Z,25.20
2023-04-08T12:15:20.542Z,28.40
2023-04-08T12:17:47.173Z,25.20
2023-04-08T12:20:14.131Z,20.80
2023-04-08T12:22:40.658Z,20.13
2023-04-08T12:25:07.459Z,20.98
2023-04-08T12:27:34.037Z,18.65
2023-04-08T12:30:01.680Z,18.08
2023-04-08T12:32:28.957Z,17.13
2023-04-08T12:34:55.916Z,17.80
2023-04-08T12:37:22.464Z,17.73
2023-04-08T12:39:49.788Z,16.90
2023-04-08T12:42:16.693Z,18.23
2023-04-08T12:44:43.443Z,16.07
2023-04-08T12:47:10.234Z,17.93
2023-04-08T12:49:48.737Z,16.40
2023-04-08T12:52:17.088Z,14.37
2023-04-08T12:54:43.749Z,13.77
2023-04-08T12:57:10.424Z,14.07
2023-04-08T12:59:37.958Z,13.77
2023-04-08T13:02:04.527Z,13.73
2023-04-08T13:04:31.082Z,17.20
2023-04-08T13:06:57.613Z,13.77
2023-04-08T13:09:24.143Z,12.88
2023-04-08T13:11:50.992Z,13.88
2023-04-08T13:14:18.078Z,14.60
2023-04-08T13:16:44.675Z,13.95
2023-04-08T13:19:11.391Z,14.10
2023-04-08T13:21:37.910Z,13.40
2023-04-08T13:24:04.756Z,13.30
2023-04-08T13:26:31.260Z,12.90
2023-04-08T13:28:58.409Z,12.13
2023-04-08T13:31:25.787Z,13.18
2023-04-08T13:33:54.509Z,13.88
2023-04-08T13:36:22.773Z,14.27
2023-04-08T13:38:49.495Z,12.35
2023-04-08T13:41:16.186Z,13.15
2023-04-08T13:43:43.297Z,11.95
2023-04-08T13:46:09.903Z,12.85
2023-04-08T13:48:36.520Z,12.00
2023-04-08T13:51:03.384Z,13.48
2023-04-08T13:53:29.945Z,14.10
2023-04-08T13:55:58.829Z,14.63
2023-04-08T13:58:26.418Z,15.32
2023-04-08T14:00:53.135Z,12.38
2023-04-08T14:03:19.729Z,12.73
2023-04-08T14:05:46.531Z,12.40
2023-04-08T14:08:13.396Z,12.60
2023-04-08T14:10:41.568Z,15.07
2023-04-08T14:13:08.101Z,13.90
2023-04-08T14:15:34.622Z,11.55
2023-04-08T14:18:01.459Z,13.10
2023-04-08T14:20:28.254Z,15.10
2023-04-08T14:22:56.360Z,12.75
2023-04-08T14:25:22.878Z,12.23
2023-04-08T14:27:57.967Z,12.30
2023-04-08T14:30:26.622Z,14.37
2023-04-08T14:32:53.402Z,14.20
2023-04-08T14:35:20.111Z,14.47
2023-04-08T14:37:46.823Z,15.20
2023-04-08T14:40:13.544Z,16.40
2023-04-08T14:42:40.085Z,14.07
2023-04-08T14:45:07.325Z,13.93
2023-04-08T14:47:34.094Z,13.37
2023-04-08T14:50:00.877Z,12.50
2023-04-08T14:52:27.605Z,15.37
2023-04-08T14:54:54.165Z,15.83
2023-04-08T14:57:20.717Z,10.27
2023-04-08T14:59:47.309Z,13.88
2023-04-08T15:02:13.986Z,12.00
2023-04-08T15:04:40.807Z,11.82
2023-04-08T15:07:07.492Z,16.23
2023-04-08T15:09:34.189Z,14.52
2023-04-08T15:12:01.121Z,12.10
2023-04-08T15:14:27.858Z,12.25
2023-04-08T15:16:54.368Z,17.15
2023-04-08T15:19:21.013Z,12.35
2023-04-08T15:21:47.636Z,10.60
2023-04-08T15:24:14.256Z,14.05
2023-04-08T15:26:40.935Z,19.63
2023-04-08T15:29:07.861Z,18.88
2023-04-08T15:31:35.176Z,11.80
2023-04-08T15:34:02.577Z,10.98
2023-04-08T15:36:30.390Z,9.45
2023-04-08T15:38:56.975Z,9.55
2023-04-08T15:41:23.564Z,10.50
2023-04-08T15:43:50.196Z,10.65
2023-04-08T15:46:23.447Z,9.95
2023-04-08T15:48:50.628Z,12.52
2023-04-08T15:51:17.559Z,10.52
2023-04-08T15:53:44.175Z,12.23
2023-04-08T15:56:14.738Z,10.20
2023-04-08T15:58:41.861Z,9.30
2023-04-08T16:01:08.432Z,9.02
2023-04-08T16:03:35.345Z,9.73
2023-04-08T16:06:02.196Z,9.70
2023-04-08T16:08:29.382Z,9.70
2023-04-08T16:11:06.116Z,9.87
2023-04-08T16:13:34.002Z,14.60
2023-04-08T16:16:04.373Z,14.37
2023-04-08T16:18:31.111Z,12.77
2023-04-08T16:20:57.885Z,14.87
2023-04-08T16:23:24.610Z,16.20
2023-04-08T16:25:51.835Z,15.30
2023-04-08T16:28:18.580Z,13.47
2023-04-08T16:30:47.456Z,19.07
2023-04-08T16:33:14.295Z,12.47
2023-04-08T16:35:40.831Z,18.57
2023-04-08T16:38:07.402Z,13.63
2023-04-08T16:40:34.705Z,13.40
2023-04-08T16:43:02.485Z,16.40
2023-04-08T16:45:30.154Z,14.10
2023-04-08T16:47:57.293Z,14.57
2023-04-08T16:50:24.315Z,17.97
2023-04-08T16:52:50.860Z,15.10
2023-04-08T16:55:18.185Z,17.50
2023-04-08T16:57:44.796Z,17.57
2023-04-08T17:00:11.843Z,18.70
2023-04-08T17:02:38.497Z,25.50
2023-04-08T17:05:05.524Z,25.03
2023-04-08T17:07:32.820Z,19.47
2023-04-08T17:10:00.062Z,20.43
2023-04-08T17:12:26.742Z,16.97
2023-04-08T17:14:53.324Z,16.47
2023-04-08T17:17:19.875Z,16.73
2023-04-08T17:19:47.056Z,16.87
2023-04-08T17:22:13.626Z,16.93
2023-04-08T17:24:40.424Z,16.23
2023-04-08T17:27:06.938Z,18.83
2023-04-08T17:29:33.435Z,17.60
2023-04-08T17:32:01.234Z,21.33
2023-04-08T17:34:29.100Z,16.93
2023-04-08T17:36:56.655Z,20.23
2023-04-08T17:39:23.264Z,17.50
2023-04-08T17:41:49.762Z,17.20
2023-04-08T17:44:17.020Z,18.20
2023-04-08T17:46:43.590Z,18.20
2023-04-08T17:49:12.641Z,19.10
2023-04-08T17:51:39.171Z,20.77
2023-04-08T17:54:05.828Z,19.07
2023-04-08T17:56:33.217Z,18.57
2023-04-08T17:58:59.746Z,18.97
2023-04-08T18:01:26.328Z,23.23
2023-04-08T18:03:53.157Z,21.27
2023-04-08T18:06:20.089Z,19.00
2023-04-08T18:08:46.594Z,21.73
2023-04-08T18:11:13.178Z,21.80
2023-04-08T18:13:39.712Z,20.97
2023-04-08T18:16:06.611Z,20.20
2023-04-08T18:18:33.147Z,24.40
2023-04-08T18:20:59.904Z,29.73
2023-04-08T18:23:27.142Z,27.07
2023-04-08T18:25:53.636Z,24.53
2023-04-08T18:28:22.263Z,27.97
2023-04-08T18:30:52.676Z,28.73
2023-04-08T18:33:19.273Z,27.63
2023-04-08T18:35:45.842Z,27.60
2023-04-08T18:38:12.412Z,44.30
2023-04-08T18:40:38.986Z,39.03
2023-04-08T18:43:05.902Z,46.20
2023-04-08T18:45:32.465Z,41.13
2023-04-08T18:47:59.248Z,40.33
2023-04-08T18:50:25.841Z,40.23
2023-04-08T18:52:52.814Z,39.70
2023-04-08T18:55:19.434Z,36.17
2023-04-08T18:57:46.262Z,41.63
2023-04-08T19:00:12.931Z,41.03
2023-04-08T19:02:39.522Z,46.03
2023-04-08T19:05:07.102Z,40.77
2023-04-08T19:07:34.144Z,44.63
2023-04-08T19:10:00.851Z,50.03
2023-04-08T19:12:27.435Z,48.27
2023-04-08T19:14:54.163Z,52.73
2023-04-08T19:17:20.887Z,49.47
2023-04-08T19:19:47.438Z,42.97
2023-04-08T19:22:13.945Z,52.60
2023-04-08T19:24:40.495Z,50.93
2023-04-08T19:27:07.089Z,51.73
2023-04-08T19:29:34.313Z,54.37
2023-04-08T19:32:01.543Z,48.10
2023-04-08T19:34:28.432Z,48.97
2023-04-08T19:36:55.139Z,48.10
2023-04-08T19:39:23.059Z,48.90
2023-04-08T19:41:51.245Z,47.53
2023-04-08T19:44:17.823Z,45.53
2023-04-08T19:46:44.437Z,44.13
2023-04-08T19:49:11.225Z,46.00
2023-04-08T19:51:37.916Z,44.47
2023-04-08T19:54:04.572Z,44.57
2023-04-08T19:56:33.855Z,45.77
2023-04-08T19:59:01.765Z,42.73
2023-04-08T20:01:28.939Z,44.60
2023-04-08T20:03:55.593Z,41.43
2023-04-08T20:06:23.003Z,39.40
2023-04-08T20:08:52.093Z,37.23
2023-04-08T20:11:19.182Z,43.20
2023-04-08T20:13:46.894Z,39.63
2023-04-08T20:16:13.792Z,40.00
2023-04-08T20:18:40.406Z,43.00
2023-04-08T20:21:07.923Z,40.23
2023-04-08T20:23:34.438Z,41.27
2023-04-08T20:26:01.566Z,42.97
2023-04-08T20:28:28.128Z,48.33
2023-04-08T20:30:54.684Z,43.73
2023-04-08T20:33:21.310Z,41.50
2023-04-08T20:35:50.529Z,42.20
2023-04-08T20:38:17.154Z,38.83
2023-04-08T20:40:46.720Z,40.57
2023-04-08T20:43:13.327Z,41.93
2023-04-08T20:45:39.871Z,40.77
2023-04-08T20:48:07.273Z,41.60
2023-04-08T20:50:34.375Z,39.60
2023-04-08T20:53:01.320Z,40.30
2023-04-08T20:55:28.104Z,43.67
2023-04-08T20:57:54.655Z,41.73
2023-04-08T21:00:21.311Z,42.13
2023-04-08T21:02:48.547Z,43.17
2023-04-08T21:05:15.449Z,44.10
2023-04-08T21:07:44.361Z,43.90
2023-04-08T21:10:14.008Z,41.77
2023-04-08T21:12:40.521Z,39.97
2023-04-08T21:15:07.573Z,43.47
2023-04-08T21:17:34.297Z,45.13
2023-04-08T21:20:00.959Z,43.77
2023-04-08T21:22:27.521Z,43.87
2023-04-08T21:24:55.880Z,46.13
2023-04-08T21:27:22.485Z,47.73
2023-04-08T21:29:52.533Z,49.07
2023-04-08T21:32:19.680Z,48.57
2023-04-08T21:34:46.342Z,50.77
2023-04-08T21:37:12.986Z,50.27
2023-04-08T21:39:39.591Z,53.70
2023-04-08T21:42:06.333Z,52.63
2023-04-08T21:44:33.149Z,50.17
2023-04-08T21:47:01.668Z,49.47
2023-04-08T21:49:29.854Z,45.73
2023-04-08T21:51:56.455Z,52.57
2023-04-08T21:54:23.052Z,47.97
2023-04-08T21:56:49.721Z,45.10
2023-04-08T21:59:16.312Z,46.57
2023-04-08T22:01:42.933Z,44.37
2023-04-08T22:04:09.755Z,44.60
2023-04-08T22:06:36.352Z,49.37
2023-04-08T22:09:03.421Z,48.53
2023-04-08T22:11:30.609Z,43.00
2023-04-08T22:13:57.145Z,43.73
2023-04-08T22:16:23.734Z,45.13
2023-04-08T22:18:51.031Z,43.67
2023-04-08T22:21:17.816Z,42.43
2023-04-08T22:23:45.267Z,40.73
2023-04-08T22:26:12.712Z,41.30
2023-04-08T22:28:39.605Z,40.07
2023-04-08T22:31:10.749Z,41.23
2023-04-08T22:33:37.987Z,42.83
2023-04-08T22:36:05.659Z,42.17
2023-04-08T22:38:32.667Z,40.87
2023-04-08T22:40:59.184Z,44.20
2023-04-08T22:43:26.136Z,43.80
2023-04-08T22:45:52.805Z,42.20
2023-04-08T22:48:19.375Z,44.17
2023-04-08T22:50:45.979Z,43.03
2023-04-08T22:53:12.917Z,42.47
2023-04-08T22:55:39.426Z,44.93
2023-04-08T22:58:05.946Z,43.13
2023-04-08T23:00:32.475Z,40.43
2023-04-08T23:02:59.079Z,44.07
2023-04-08T23:05:25.939Z,45.40
2023-04-08T23:07:52.467Z,43.43
2023-04-08T23:10:19.051Z,41.70
2023-04-08T23:12:45.593Z,44.70
2023-04-08T23:15:12.115Z,42.87
2023-04-08T23:17:38.643Z,43.20
2023-04-08T23:20:06.375Z,49.00
2023-04-08T23:22:32.877Z,42.80
2023-04-08T23:24:59.378Z,42.93
2023-04-08T23:27:25.926Z,41.40
2023-04-08T23:29:52.446Z,45.00
2023-04-08T23:32:19.004Z,45.53
2023-04-08T23:34:45.693Z,45.33
2023-04-08T23:37:12.238Z,44.10
2023-04-08T23:39:38.767Z,44.70
2023-04-08T23:42:05.421Z,48.67
2023-04-08T23:44:31.952Z,44.17
2023-04-08T23:46:58.487Z,47.37
2023-04-08T23:49:25.229Z,47.17
2023-04-08T23:51:53.423Z,48.77
2023-04-08T23:54:20.167Z,55.17
2023-04-08T23:56:46.744Z,49.27
2023-04-08T23:59:13.297Z,52.13
